createdAt,value
2019-02-26T00:02:02.561Z,12.13
2019-02-26T00:04:35.051Z,12.87
2019-02-26T00:07:05.754Z,12.40
2019-02-26T00:09:36.179Z,13.63
2019-02-26T00:12:06.869Z,17.53
2019-02-26T00:14:37.234Z,16.03
2019-02-26T00:17:10.618Z,15.30
2019-02-26T00:19:39.877Z,13.83
2019-02-26T00:22:13.718Z,12.07
2019-02-26T00:24:44.902Z,11.53
2019-02-26T00:27:16.540Z,11.77
2019-02-26T00:29:49.185Z,10.77
2019-02-26T00:32:19.671Z,11.60
2019-02-26T00:34:50.200Z,12.20
2019-02-26T00:37:22.148Z,11.43
2019-02-26T00:39:54.152Z,11.17
2019-02-26T00:42:26.405Z,12.23
2019-02-26T00:44:58.265Z,11.53
2019-02-26T00:47:31.835Z,10.73
2019-02-26T00:50:01.692Z,10.93
2019-02-26T00:52:33.062Z,11.83
2019-02-26T00:55:05.433Z,11.73
2019-02-26T00:57:38.908Z,11.10
2019-02-26T01:00:12.880Z,11.20
2019-02-26T01:02:44.042Z,11.23
2019-02-26T01:05:15.822Z,10.47
2019-02-26T01:07:49.485Z,10.57
2019-02-26T01:10:21.247Z,10.53
2019-02-26T01:12:51.348Z,11.03
2019-02-26T01:15:23.625Z,11.53
2019-02-26T01:17:56.617Z,11.63
2019-02-26T01:20:28.018Z,11.23
2019-02-26T01:22:59.405Z,10.67
2019-02-26T01:25:29.836Z,11.20
2019-02-26T01:28:01.909Z,11.00
2019-02-26T01:30:35.675Z,12.17
2019-02-26T01:33:05.612Z,11.03
2019-02-26T01:35:37.757Z,10.23
2019-02-26T01:38:08.956Z,9.90
2019-02-26T01:40:43.644Z,11.13
2019-02-26T01:43:11.820Z,9.97
2019-02-26T01:45:44.000Z,10.83
2019-02-26T01:48:18.639Z,10.70
2019-02-26T01:50:49.372Z,11.10
2019-02-26T01:53:21.990Z,11.17
2019-02-26T01:55:54.083Z,9.97
2019-02-26T01:58:24.733Z,10.80
2019-02-26T02:00:55.969Z,10.83
2019-02-26T02:03:28.042Z,10.20
2019-02-26T02:06:00.058Z,10.97
2019-02-26T02:08:30.605Z,11.00
2019-02-26T02:11:02.398Z,11.03
2019-02-26T02:13:35.661Z,10.83
2019-02-26T02:16:06.799Z,10.77
2019-02-26T02:18:38.166Z,11.47
2019-02-26T02:21:08.632Z,11.40
2019-02-26T02:23:39.116Z,11.17
2019-02-26T02:26:11.635Z,11.60
2019-02-26T02:28:43.250Z,10.47
2019-02-26T02:31:13.901Z,11.37
2019-02-26T02:33:44.420Z,10.83
2019-02-26T02:36:20.612Z,10.60
2019-02-26T02:38:49.922Z,10.10
2019-02-26T02:41:20.475Z,10.73
2019-02-26T02:43:51.057Z,11.13
2019-02-26T02:46:23.508Z,11.53
2019-02-26T02:48:54.286Z,11.90
2019-02-26T02:51:25.700Z,11.37
2019-02-26T02:54:00.237Z,11.20
2019-02-26T02:56:33.214Z,10.67
2019-02-26T02:59:05.961Z,10.73
2019-02-26T03:01:36.453Z,11.10
2019-02-26T03:04:06.930Z,11.57
2019-02-26T03:06:38.680Z,10.40
2019-02-26T03:09:17.220Z,10.60
2019-02-26T03:11:49.303Z,11.37
2019-02-26T03:14:19.358Z,12.53
2019-02-26T03:16:53.486Z,11.47
2019-02-26T03:19:23.470Z,11.47
2019-02-26T03:21:54.998Z,11.63
2019-02-26T03:24:28.368Z,12.03
2019-02-26T03:26:57.958Z,11.90
2019-02-26T03:29:28.415Z,12.63
2019-02-26T03:31:58.899Z,12.17
2019-02-26T03:34:29.338Z,11.57
2019-02-26T03:37:03.099Z,11.13
2019-02-26T03:39:32.549Z,11.23
2019-02-26T03:42:03.112Z,11.20
2019-02-26T03:44:34.116Z,11.03
2019-02-26T03:47:04.649Z,11.43
2019-02-26T03:49:35.239Z,11.80
2019-02-26T03:52:05.703Z,11.37
2019-02-26T03:54:39.847Z,11.37
2019-02-26T03:57:09.045Z,11.43
2019-02-26T03:59:40.562Z,11.10
2019-02-26T04:02:11.907Z,11.60
2019-02-26T04:04:48.543Z,11.37
2019-02-26T04:07:15.991Z,11.13
2019-02-26T04:09:47.308Z,13.30
2019-02-26T04:12:20.849Z,13.40
2019-02-26T04:14:51.427Z,16.20
2019-02-26T04:17:25.429Z,13.23
2019-02-26T04:19:54.444Z,12.40
2019-02-26T04:22:33.046Z,13.87
2019-02-26T04:25:16.280Z,13.17
2019-02-26T04:28:07.723Z,12.70
2019-02-26T04:31:16.979Z,11.77
2019-02-26T04:34:25.693Z,11.07
2019-02-26T04:37:38.527Z,10.50
2019-02-26T04:40:40.998Z,12.10
2019-02-26T04:43:41.141Z,11.63
2019-02-26T04:46:41.647Z,11.50
2019-02-26T04:49:14.762Z,13.10
2019-02-26T04:51:47.772Z,12.20
2019-02-26T04:54:23.807Z,13.07
2019-02-26T04:56:50.956Z,11.97
2019-02-26T04:59:21.610Z,12.50
2019-02-26T05:01:55.129Z,11.77
2019-02-26T05:04:30.546Z,11.40
2019-02-26T05:07:04.342Z,12.97
2019-02-26T05:09:35.326Z,11.67
2019-02-26T05:12:05.227Z,12.50
2019-02-26T05:14:36.253Z,12.50
2019-02-26T05:17:06.882Z,12.13
2019-02-26T05:19:39.590Z,12.00
2019-02-26T05:22:10.389Z,12.63
2019-02-26T05:24:44.220Z,12.40
2019-02-26T05:27:18.620Z,13.40
2019-02-26T05:29:49.259Z,12.57
2019-02-26T05:32:21.810Z,13.07
2019-02-26T05:34:52.201Z,12.43
2019-02-26T05:37:22.479Z,12.13
2019-02-26T05:39:54.581Z,11.30
2019-02-26T05:42:25.344Z,12.40
2019-02-26T05:44:59.832Z,11.70
2019-02-26T05:47:30.193Z,11.83
2019-02-26T05:50:02.682Z,11.73
2019-02-26T05:52:35.862Z,11.03
2019-02-26T05:55:06.117Z,11.40
2019-02-26T05:57:37.420Z,12.63
2019-02-26T06:00:08.736Z,12.33
2019-02-26T06:02:42.619Z,12.00
2019-02-26T06:05:14.435Z,11.77
2019-02-26T06:07:46.026Z,11.60
2019-02-26T06:10:21.006Z,12.03
2019-02-26T06:12:51.103Z,11.23
2019-02-26T06:15:23.105Z,10.67
2019-02-26T06:17:55.962Z,11.40
2019-02-26T06:20:29.241Z,10.53
2019-02-26T06:22:59.829Z,11.97
2019-02-26T06:25:31.276Z,11.57
2019-02-26T06:28:06.794Z,11.10
2019-02-26T06:30:35.027Z,11.93
2019-02-26T06:33:07.135Z,12.27
2019-02-26T06:35:40.547Z,11.40
2019-02-26T06:38:11.664Z,11.70
2019-02-26T06:40:48.836Z,12.20
2019-02-26T06:43:19.020Z,11.83
2019-02-26T06:45:50.242Z,12.43
2019-02-26T06:48:24.619Z,11.57
2019-02-26T06:50:55.660Z,13.03
2019-02-26T06:53:27.019Z,13.20
2019-02-26T06:55:58.612Z,12.60
2019-02-26T06:58:30.967Z,13.37
2019-02-26T07:01:02.177Z,13.37
2019-02-26T07:03:33.575Z,13.27
2019-02-26T07:06:08.718Z,13.50
2019-02-26T07:08:44.515Z,14.17
2019-02-26T07:11:16.617Z,13.60
2019-02-26T07:13:48.837Z,12.17
2019-02-26T07:16:21.145Z,13.20
2019-02-26T07:18:55.674Z,16.80
2019-02-26T07:21:26.983Z,13.77
2019-02-26T07:24:00.976Z,13.47
2019-02-26T07:26:33.073Z,13.73
2019-02-26T07:29:05.840Z,12.97
2019-02-26T07:31:41.983Z,13.40
2019-02-26T07:34:15.635Z,12.03
2019-02-26T07:36:47.940Z,11.57
2019-02-26T07:39:22.726Z,12.50
2019-02-26T07:41:54.449Z,12.43
2019-02-26T07:44:27.936Z,15.43
2019-02-26T07:47:00.960Z,13.47
2019-02-26T07:49:31.842Z,13.77
2019-02-26T07:52:06.657Z,14.27
2019-02-26T07:54:40.441Z,14.03
2019-02-26T07:57:11.658Z,13.60
2019-02-26T07:59:44.688Z,13.30
2019-02-26T08:02:15.466Z,14.03
2019-02-26T08:04:46.556Z,12.67
2019-02-26T08:07:21.487Z,13.87
2019-02-26T08:09:52.084Z,13.07
2019-02-26T08:12:23.384Z,12.73
2019-02-26T08:14:54.580Z,12.73
2019-02-26T08:17:25.974Z,12.93
2019-02-26T08:19:58.980Z,13.63
2019-02-26T08:22:31.912Z,11.57
2019-02-26T08:25:03.024Z,12.57
2019-02-26T08:27:35.574Z,12.00
2019-02-26T08:30:09.150Z,12.63
2019-02-26T08:32:40.530Z,11.27
2019-02-26T08:35:12.724Z,12.43
2019-02-26T08:37:43.860Z,13.40
2019-02-26T08:40:15.539Z,12.53
2019-02-26T08:42:46.406Z,12.50
2019-02-26T08:45:21.034Z,12.53
2019-02-26T08:47:52.080Z,12.50
2019-02-26T08:50:23.138Z,13.60
2019-02-26T08:52:56.221Z,14.20
2019-02-26T08:55:27.791Z,14.43
2019-02-26T08:57:59.168Z,12.83
2019-02-26T09:00:34.221Z,14.53
2019-02-26T09:03:08.263Z,15.03
2019-02-26T09:05:38.377Z,15.23
2019-02-26T09:08:12.840Z,14.87
2019-02-26T09:10:46.335Z,15.27
2019-02-26T09:13:18.578Z,14.97
2019-02-26T09:15:49.470Z,16.03
2019-02-26T09:18:22.428Z,14.77
2019-02-26T09:20:53.823Z,15.77
2019-02-26T09:23:25.829Z,16.87
2019-02-26T09:25:59.628Z,17.00
2019-02-26T09:28:32.058Z,16.83
2019-02-26T09:31:06.713Z,16.93
2019-02-26T09:33:42.758Z,18.37
2019-02-26T09:36:15.750Z,18.27
2019-02-26T09:38:49.640Z,18.07
2019-02-26T09:41:21.453Z,18.17
2019-02-26T09:43:52.574Z,18.33
2019-02-26T09:46:23.811Z,18.53
2019-02-26T09:48:55.125Z,17.23
2019-02-26T09:51:28.232Z,18.70
2019-02-26T09:53:59.236Z,19.07
2019-02-26T09:56:30.724Z,19.60
2019-02-26T09:59:05.140Z,18.77
2019-02-26T10:01:42.819Z,18.97
2019-02-26T10:04:14.160Z,18.80
2019-02-26T10:06:47.514Z,19.50
2019-02-26T10:09:20.605Z,19.57
2019-02-26T10:11:52.974Z,21.23
2019-02-26T10:14:26.372Z,20.33
2019-02-26T10:16:57.530Z,19.47
2019-02-26T10:19:30.950Z,20.33
2019-02-26T10:22:05.604Z,19.60
2019-02-26T10:24:35.366Z,20.70
2019-02-26T10:27:09.391Z,20.17
2019-02-26T10:29:45.156Z,19.77
2019-02-26T10:32:15.833Z,18.43
2019-02-26T10:34:49.098Z,19.90
2019-02-26T10:37:23.238Z,20.07
2019-02-26T10:39:58.941Z,19.07
2019-02-26T10:42:39.473Z,19.70
2019-02-26T10:45:02.801Z,19.90
2019-02-26T10:47:34.729Z,22.13
2019-02-26T10:50:06.916Z,19.23
2019-02-26T10:52:39.185Z,18.53
2019-02-26T10:55:12.909Z,18.73
2019-02-26T10:57:43.084Z,20.67
2019-02-26T11:00:25.970Z,20.13
2019-02-26T11:02:56.406Z,18.53
2019-02-26T11:05:27.276Z,19.17
2019-02-26T11:08:05.373Z,20.40
2019-02-26T11:10:39.457Z,19.73
2019-02-26T11:13:06.609Z,19.83
2019-02-26T11:15:37.733Z,19.63
2019-02-26T11:18:11.762Z,19.87
2019-02-26T11:20:45.822Z,21.37
2019-02-26T11:23:16.620Z,21.73
2019-02-26T11:25:47.948Z,21.47
2019-02-26T11:28:19.092Z,20.37
2019-02-26T11:30:52.123Z,18.83
2019-02-26T11:33:23.084Z,21.03
2019-02-26T11:35:56.398Z,21.57
2019-02-26T11:38:28.095Z,20.63
2019-02-26T11:40:59.403Z,18.87
2019-02-26T11:43:30.814Z,19.67
2019-02-26T11:46:03.789Z,19.97
2019-02-26T11:48:35.044Z,17.83
2019-02-26T11:51:06.091Z,19.00
2019-02-26T11:53:37.328Z,18.80
2019-02-26T11:56:08.375Z,18.67
2019-02-26T11:58:39.618Z,16.80
2019-02-26T12:01:14.194Z,17.23
2019-02-26T12:03:45.303Z,15.73
2019-02-26T12:06:16.619Z,17.00
2019-02-26T12:08:49.927Z,17.17
2019-02-26T12:11:25.801Z,16.30
2019-02-26T12:13:56.883Z,17.07
2019-02-26T12:16:30.964Z,16.40
2019-02-26T12:19:10.803Z,15.03
2019-02-26T12:21:41.475Z,15.23
2019-02-26T12:24:12.607Z,14.97
2019-02-26T12:26:45.318Z,15.17
2019-02-26T12:29:18.560Z,16.50
2019-02-26T12:31:50.216Z,16.27
2019-02-26T12:34:23.645Z,17.00
2019-02-26T12:36:57.142Z,14.40
2019-02-26T12:39:31.490Z,13.53
2019-02-26T12:42:03.309Z,13.97
2019-02-26T12:44:37.844Z,13.70
2019-02-26T12:47:07.062Z,13.60
2019-02-26T12:49:39.146Z,15.03
2019-02-26T12:52:10.400Z,14.80
2019-02-26T12:54:42.839Z,15.83
2019-02-26T12:57:16.931Z,14.87
2019-02-26T12:59:46.499Z,14.57
2019-02-26T13:02:20.787Z,13.67
2019-02-26T13:04:51.153Z,15.37
2019-02-26T13:07:22.585Z,13.60
2019-02-26T13:09:56.088Z,14.83
2019-02-26T13:12:29.641Z,13.53
2019-02-26T13:17:32.361Z,13.63
2019-02-26T13:20:05.742Z,14.00
2019-02-26T13:22:36.639Z,14.30
2019-02-26T13:25:09.644Z,13.00
2019-02-26T13:27:43.666Z,12.63
2019-02-26T13:30:17.991Z,12.97
2019-02-26T13:32:56.036Z,12.10
2019-02-26T13:35:22.584Z,11.20
2019-02-26T13:37:54.009Z,11.53
2019-02-26T13:40:25.653Z,11.50
2019-02-26T13:45:29.142Z,12.57
2019-02-26T13:48:01.399Z,10.60
2019-02-26T13:50:33.281Z,11.27
2019-02-26T13:53:04.035Z,11.13
2019-02-26T13:55:35.011Z,12.17
2019-02-26T13:58:11.692Z,10.63
2019-02-26T14:00:40.785Z,8.23
2019-02-26T14:03:12.250Z,10.20
2019-02-26T14:05:43.187Z,9.83
2019-02-26T14:08:15.519Z,8.93
2019-02-26T14:10:46.529Z,9.83
2019-02-26T14:13:20.533Z,9.70
2019-02-26T14:15:51.482Z,10.07
2019-02-26T14:18:22.609Z,10.10
2019-02-26T14:20:53.898Z,8.80
2019-02-26T14:23:25.697Z,10.10
2019-02-26T14:25:56.519Z,9.13
2019-02-26T14:28:30.811Z,9.07
2019-02-26T14:31:02.035Z,8.60
2019-02-26T14:33:32.837Z,9.03
2019-02-26T14:36:03.828Z,10.20
2019-02-26T14:38:35.137Z,9.03
2019-02-26T14:41:06.451Z,9.57
2019-02-26T14:43:40.747Z,9.53
2019-02-26T14:46:12.686Z,9.20
2019-02-26T14:48:43.774Z,9.73
2019-02-26T14:51:17.822Z,9.63
2019-02-26T14:53:49.280Z,10.20
2019-02-26T14:56:20.453Z,10.03
2019-02-26T14:58:51.549Z,9.67
2019-02-26T15:01:23.058Z,10.10
2019-02-26T15:03:54.003Z,9.97
2019-02-26T15:06:24.929Z,9.40
2019-02-26T15:08:55.581Z,10.40
2019-02-26T15:11:26.625Z,10.57
2019-02-26T15:14:00.356Z,10.40
2019-02-26T15:16:29.989Z,11.20
2019-02-26T15:19:01.394Z,10.63
2019-02-26T15:21:32.548Z,10.83
2019-02-26T15:24:03.596Z,11.07
2019-02-26T15:26:34.400Z,10.50
2019-02-26T15:29:05.370Z,10.53
2019-02-26T15:31:39.601Z,11.83
2019-02-26T15:34:10.835Z,11.40
2019-02-26T15:36:44.308Z,10.70
2019-02-26T15:39:16.106Z,11.63
2019-02-26T15:41:48.293Z,11.53
2019-02-26T15:44:19.292Z,11.13
2019-02-26T15:46:50.261Z,11.00
2019-02-26T15:49:21.377Z,11.47
2019-02-26T15:51:52.757Z,10.80
2019-02-26T15:54:25.309Z,10.70
2019-02-26T15:57:00.448Z,11.07
2019-02-26T15:59:35.491Z,13.27
2019-02-26T16:02:04.085Z,12.90
2019-02-26T16:04:37.556Z,11.57
2019-02-26T16:07:11.602Z,11.03
2019-02-26T16:09:44.204Z,10.67
2019-02-26T16:12:16.024Z,12.13
2019-02-26T16:14:48.649Z,11.63
2019-02-26T16:17:22.891Z,12.37
2019-02-26T16:19:54.401Z,11.47
2019-02-26T16:22:25.785Z,12.63
2019-02-26T16:24:57.162Z,11.80
2019-02-26T16:27:28.136Z,11.87
2019-02-26T16:29:59.173Z,11.73
2019-02-26T16:32:30.523Z,12.10
2019-02-26T16:35:01.720Z,12.63
2019-02-26T16:37:32.421Z,12.70
2019-02-26T16:40:03.463Z,12.73
2019-02-26T16:42:35.080Z,13.77
2019-02-26T16:45:09.475Z,13.83
2019-02-26T16:47:40.923Z,13.63
2019-02-26T16:50:14.525Z,13.70
2019-02-26T16:52:45.290Z,14.70
2019-02-26T16:55:17.323Z,12.67
2019-02-26T16:57:48.777Z,13.87
2019-02-26T17:00:21.027Z,14.40
2019-02-26T17:02:54.835Z,13.80
2019-02-26T17:05:26.625Z,12.67
2019-02-26T17:07:57.631Z,12.43
2019-02-26T17:10:30.348Z,12.93
2019-02-26T17:13:02.287Z,12.43
2019-02-26T17:15:33.079Z,13.07
2019-02-26T17:18:04.927Z,12.63
2019-02-26T17:20:35.388Z,13.50
2019-02-26T17:23:05.648Z,12.60
2019-02-26T17:25:35.954Z,13.80
2019-02-26T17:28:06.265Z,12.40
2019-02-26T17:30:37.001Z,13.10
2019-02-26T17:33:11.394Z,12.37
2019-02-26T17:35:39.491Z,14.93
2019-02-26T17:38:10.107Z,13.23
2019-02-26T17:40:40.791Z,14.10
2019-02-26T17:43:11.229Z,15.13
2019-02-26T17:45:41.875Z,14.93
2019-02-26T17:48:12.389Z,13.97
2019-02-26T17:50:45.701Z,14.30
2019-02-26T17:53:14.828Z,15.13
2019-02-26T17:55:46.896Z,13.63
2019-02-26T17:58:17.638Z,13.13
2019-02-26T18:00:52.839Z,13.07
2019-02-26T18:03:23.272Z,13.23
2019-02-26T18:05:53.639Z,13.00
2019-02-26T18:08:24.181Z,13.47
2019-02-26T18:10:58.849Z,12.17
2019-02-26T18:13:29.435Z,14.27
2019-02-26T18:16:08.753Z,13.70
2019-02-26T18:18:34.420Z,13.20
2019-02-26T18:21:06.538Z,12.87
2019-02-26T18:23:37.751Z,13.00
2019-02-26T18:26:08.750Z,13.80
2019-02-26T18:28:39.420Z,12.63
2019-02-26T18:31:10.016Z,12.93
2019-02-26T18:33:40.801Z,12.87
2019-02-26T18:36:11.477Z,13.13
2019-02-26T18:38:42.141Z,13.03
2019-02-26T18:41:12.843Z,12.27
2019-02-26T18:43:44.808Z,13.00
2019-02-26T18:46:15.647Z,12.17
2019-02-26T18:48:48.549Z,14.20
2019-02-26T18:51:18.665Z,14.47
2019-02-26T18:53:50.545Z,12.53
2019-02-26T18:56:21.419Z,13.00
2019-02-26T18:58:51.956Z,12.97
2019-02-26T19:01:22.728Z,12.20
2019-02-26T19:03:53.128Z,12.33
2019-02-26T19:06:24.702Z,12.30
2019-02-26T19:08:55.798Z,11.80
2019-02-26T19:11:26.437Z,12.07
2019-02-26T19:13:56.982Z,11.37
2019-02-26T19:16:27.456Z,13.87
2019-02-26T19:18:58.280Z,13.10
2019-02-26T19:21:28.740Z,13.67
2019-02-26T19:23:59.355Z,13.00
2019-02-26T19:26:30.996Z,12.80
2019-02-26T19:29:02.235Z,14.43
2019-02-26T19:31:32.684Z,14.47
2019-02-26T19:34:03.638Z,13.43
2019-02-26T19:36:34.390Z,15.43
2019-02-26T19:39:07.435Z,15.10
2019-02-26T19:41:38.005Z,15.97
2019-02-26T19:44:08.525Z,16.13
2019-02-26T19:46:39.255Z,15.63
2019-02-26T19:49:09.723Z,15.93
2019-02-26T19:51:40.249Z,14.93
2019-02-26T19:54:12.720Z,16.03
2019-02-26T19:56:43.389Z,16.27
2019-02-26T19:59:21.569Z,16.90
2019-02-26T20:01:53.007Z,16.30
2019-02-26T20:04:23.548Z,16.00
2019-02-26T20:06:54.145Z,15.43
2019-02-26T20:09:24.577Z,16.93
2019-02-26T20:11:56.240Z,16.27
2019-02-26T20:14:27.583Z,16.53
2019-02-26T20:16:58.460Z,17.80
2019-02-26T20:19:31.912Z,21.43
2019-02-26T20:22:03.189Z,19.40
2019-02-26T20:24:35.250Z,19.30
2019-02-26T20:27:06.179Z,17.17
2019-02-26T20:29:36.785Z,17.40
2019-02-26T20:32:08.864Z,16.03
2019-02-26T20:34:40.120Z,15.27
2019-02-26T20:37:10.660Z,16.57
2019-02-26T20:39:43.999Z,16.53
2019-02-26T20:42:13.700Z,16.97
2019-02-26T20:44:45.857Z,16.30
2019-02-26T20:47:16.469Z,16.50
2019-02-26T20:49:47.092Z,16.47
2019-02-26T20:52:17.616Z,16.17
2019-02-26T20:54:48.620Z,15.50
2019-02-26T20:57:19.114Z,14.97
2019-02-26T20:59:51.905Z,15.90
2019-02-26T21:02:22.791Z,15.63
2019-02-26T21:04:53.554Z,16.27
2019-02-26T21:07:24.582Z,15.37
2019-02-26T21:10:03.515Z,14.47
2019-02-26T21:12:28.773Z,15.90
2019-02-26T21:15:00.015Z,14.80
2019-02-26T21:17:33.744Z,15.83
2019-02-26T21:20:07.497Z,15.70
2019-02-26T21:22:38.218Z,15.10
2019-02-26T21:25:13.657Z,15.10
2019-02-26T21:27:44.274Z,15.20
2019-02-26T21:30:16.973Z,13.80
2019-02-26T21:32:47.506Z,14.03
2019-02-26T21:35:20.555Z,14.93
2019-02-26T21:37:50.032Z,15.97
2019-02-26T21:40:21.055Z,14.77
2019-02-26T21:42:53.094Z,14.33
2019-02-26T21:45:23.941Z,14.50
2019-02-26T21:47:54.474Z,13.77
2019-02-26T21:50:25.039Z,13.17
2019-02-26T21:53:02.468Z,13.97
2019-02-26T21:55:27.662Z,14.57
2019-02-26T21:57:58.358Z,14.43
2019-02-26T22:00:28.910Z,13.73
2019-02-26T22:02:59.387Z,13.80
2019-02-26T22:05:29.976Z,13.63
2019-02-26T22:08:00.585Z,14.57
2019-02-26T22:10:31.041Z,14.00
2019-02-26T22:13:01.534Z,13.63
2019-02-26T22:15:32.008Z,14.20
2019-02-26T22:18:02.888Z,14.40
2019-02-26T22:20:36.529Z,14.10
2019-02-26T22:23:05.632Z,15.57
2019-02-26T22:25:36.342Z,15.90
2019-02-26T22:28:08.825Z,15.13
2019-02-26T22:30:39.046Z,14.23
2019-02-26T22:33:11.475Z,13.40
2019-02-26T22:35:42.201Z,13.73
2019-02-26T22:38:15.339Z,13.33
2019-02-26T22:40:45.126Z,14.63
2019-02-26T22:43:15.644Z,13.13
2019-02-26T22:45:46.155Z,13.80
2019-02-26T22:48:16.915Z,14.27
2019-02-26T22:50:47.799Z,14.00
2019-02-26T22:53:18.316Z,14.07
2019-02-26T22:55:50.347Z,14.93
2019-02-26T22:58:20.904Z,13.87
2019-02-26T23:01:11.404Z,14.17
2019-02-26T23:03:45.681Z,14.10
2019-02-26T23:06:15.840Z,13.83
2019-02-26T23:08:46.606Z,13.63
2019-02-26T23:11:19.390Z,14.83
2019-02-26T23:13:50.232Z,14.77
2019-02-26T23:16:21.378Z,13.63
2019-02-26T23:18:52.982Z,13.87
2019-02-26T23:21:24.014Z,13.33
2019-02-26T23:23:55.340Z,14.83
2019-02-26T23:26:25.905Z,13.60
2019-02-26T23:28:57.856Z,13.83
2019-02-26T23:31:32.645Z,13.83
2019-02-26T23:34:00.959Z,13.37
2019-02-26T23:36:31.806Z,12.90
2019-02-26T23:39:03.514Z,13.83
2019-02-26T23:41:34.764Z,14.07
2019-02-26T23:44:05.358Z,13.83
2019-02-26T23:46:36.392Z,13.77
2019-02-26T23:49:11.724Z,14.47
2019-02-26T23:51:41.428Z,14.70
2019-02-26T23:54:12.082Z,13.50
2019-02-26T23:56:42.696Z,13.97
2019-02-26T23:59:13.126Z,13.67
